Latest Coastal Weather Observations for Robe Airport

IDV60701

Issued at 8:43 pm EDT Tuesday 31 March 2015 (issued every 10 minutes, with the page automatically refreshed every 10 minutes)

About coastal observations | Map of coastal stations | Coastal observations for VIC | Marine services | Other Formats
Station Details ID: 026105 Name: ROBE AIRFIELD Lat: -37.18 Lon: 139.81 Height: 3.0 m
Data from the previous 72 hours. | See also: Recent months at Robe Airport
Date/Time
EDT
Temp

°C
Wind Pressure Rain
since 9am
mm
Weather Cloud Vis
km
Sea
Height
m
Swell
Dir
 
Speed
knots
Gust
knots
hPa Trend Height
m
Period
s
Dir
31/08:30pm 16.3 SSW 1 1 1020.2 - 0.0 - - - - - - -
31/08:00pm 17.9 SSW 2 3 1020.4 - 0.0 - - - - - - -
31/07:30pm 20.1 WNW 1 2 1020.2 - 0.0 - - - - - - -
31/07:00pm 22.3 WNW 3 4 1020.3 - 0.0 - - - - - - -
31/06:30pm 23.4 WNW 4 6 1020.2 - 0.0 - - - - - - -
31/06:00pm 23.4 WNW 5 7 1020.2 - 0.0 - - - - - - -
31/05:30pm 23.9 NW 7 9 1020.3 - 0.0 - - - - - - -
31/05:00pm 24.3 NW 7 10 1020.4 - 0.0 - - - - - - -
31/04:30pm 24.3 NW 8 10 1020.7 - 0.0 - - - - - - -
31/04:00pm 24.2 NW 9 11 1021.1 - 0.0 - - - - - - -
31/03:30pm 24.9 WNW 11 14 1021.7 - 0.0 - - - - - - -
31/03:00pm 23.8 WNW 12 15 1022.2 - 0.0 - - - - - - -
31/02:30pm 23.5 NW 12 15 1022.3 - 0.0 - - - - - - -
31/02:00pm 23.8 NW 11 14 1022.8 - 0.0 - - - - - - -
31/01:30pm 23.7 NW 10 12 1023.2 - 0.0 - - - - - - -
31/01:00pm 24.3 WNW 8 11 1023.5 - 0.0 - - - - - - -
31/12:30pm 23.4 N 8 11 1023.9 - 0.0 - - - - - - -
31/12:00pm 22.6 N 8 12 1024.4 - 0.0 - - - - - - -
31/11:30am 20.6 N 9 11 1024.8 - 0.0 - - - - - - -
31/11:00am 19.0 NNE 7 10 1025.1 - 0.0 - - - - - - -
31/10:30am 16.1 NE 6 8 1025.3 - 0.0 - - - - - - -
31/10:00am 14.1 ENE 6 9 1025.5 - 0.0 - - - - - - -
31/09:30am 12.8 ENE 4 7 1025.4 - 0.2 - - - - - - -
31/09:00am 11.9 ENE 2 3 1025.3 - 0.2 - - - - - - -
31/08:30am 10.9 ESE 3 5 1025.0 - 0.2 - - - - - - -
31/08:00am 10.2 SSE 2 3 1024.9 - 0.2 - - - - - - -
31/07:30am 9.8 SSW 2 3 1025.3 - 0.0 - - - - - - -
31/07:00am 9.4 SSW 2 2 1025.1 - 0.0 - - - - - - -
31/06:30am 9.4 SSW 1 1 1024.9 - 0.0 - - - - - - -
31/06:00am 9.4 SSW 2 2 1024.8 - 0.0 - - - - - - -
31/05:30am 8.4 CALM 0 0 1024.9 - 0.0 - - - - - - -
31/05:00am 9.2 SSW 1 1 1024.8 - 0.0 - - - - - - -
31/04:30am 8.7 SSW 2 2 1024.9 - 0.0 - - - - - - -
31/04:00am 9.0 SSW 2 3 1025.2 - 0.0 - - - - - - -
31/03:30am 9.6 CALM 0 0 1025.3 - 0.0 - - - - - - -
31/03:00am 9.5 CALM 0 1 1025.1 - 0.0 - - - - - - -
31/02:30am 9.4 NE 1 2 1025.4 - 0.0 - - - - - - -
31/02:00am 9.3 CALM 0 0 1025.7 - 0.0 - - - - - - -
31/01:30am 9.4 CALM 0 0 1025.7 - 0.0 - - - - - - -
31/01:00am 9.5 CALM 0 0 1025.6 - 0.0 - - - - - - -
31/12:30am 10.7 CALM 0 0 1025.7 - 0.0 - - - - - - -
31/12:00am 10.2 CALM 0 0 1026.0 - 0.0 - - - - - - -
 
Date/Time
EDT
Temp

°C
Wind Pressure Rain
since 9am
mm
Weather Cloud Vis
km
Sea
Height
m
Swell
Dir
 
Speed
knots
Gust
knots
hPa Trend Height
m
Period
s
Dir
30/11:30pm 10.8 CALM 0 0 1026.1 - 0.0 - - - - - - -
30/11:00pm 10.4 CALM 0 0 1026.2 - 0.0 - - - - - - -
30/10:30pm 11.5 CALM 0 0 1026.2 - 0.0 - - - - - - -
30/10:00pm 12.6 CALM 0 0 1026.2 - 0.0 - - - - - - -
30/09:30pm 12.4 CALM 0 0 1026.2 - 0.0 - - - - - - -
30/09:00pm 13.9 CALM 0 0 1025.9 - 0.0 - - - - - - -
30/08:30pm 15.1 CALM 0 0 1025.7 - 0.0 - - - - - - -
30/08:00pm 16.6 SE 1 2 1025.4 - 0.0 - - - - - - -
30/07:30pm 17.5 WNW 3 5 1025.3 - 0.0 - - - - - - -
30/07:00pm 18.8 W 3 6 1025.1 - 0.0 - - - - - - -
30/06:30pm 19.4 W 6 9 1024.9 - 0.0 - - - - - - -
30/06:00pm 19.4 W 6 9 1024.8 - 0.0 - - - - - - -
30/05:30pm 20.4 W 7 9 1024.7 - 0.0 - - - - - - -
30/05:00pm 19.8 NW 9 11 1024.7 - 0.0 - - - - - - -
30/04:30pm 20.5 NW 10 12 1024.7 - 0.0 - - - - - - -
30/04:00pm 21.4 NW 8 12 1024.8 - 0.0 - - - - - - -
30/03:30pm 21.1 NW 10 13 1024.9 - 0.0 - - - - - - -
30/03:00pm 21.1 NW 10 13 1025.0 - 0.0 - - - - - - -
30/02:30pm 20.6 NW 9 12 1025.1 - 0.0 - - - - - - -
30/02:00pm 20.2 NW 11 13 1025.3 - 0.0 - - - - - - -
30/01:30pm 20.7 NW 9 12 1025.5 - 0.0 - - - - - - -
30/01:00pm 20.9 NW 8 12 1025.7 - 0.0 - - - - - - -
30/12:30pm 20.0 NW 9 11 1025.8 - 0.0 - - - - - - -
30/12:00pm 19.3 NNW 8 10 1025.8 - 0.0 - - - - - - -
30/11:30am 19.5 NW 6 9 1025.9 - 0.0 - - - - - - -
30/11:00am 18.1 NW 4 8 1026.0 - 0.0 - - - - - - -
30/10:30am 17.3 NE 3 6 1025.8 - 0.0 - - - - - - -
30/10:00am 15.4 NNE 3 4 1025.5 - 0.0 - - - - - - -
30/09:30am 14.4 W 2 3 1025.3 - 0.0 - - - - - - -
30/09:00am 12.5 W 2 3 1024.9 - 0.0 - - - - - - -
30/08:30am 10.6 CALM 0 0 1024.6 - 0.0 - - - - - - -
30/08:00am 9.2 CALM 0 0 1024.2 - 0.0 - - - - - - -
30/07:30am 8.3 CALM 0 0 1024.0 - 0.0 - - - - - - -
30/07:00am 7.5 CALM 0 0 1023.6 - 0.0 - - - - - - -
30/06:30am 7.8 CALM 0 0 1023.4 - 0.0 - - - - - - -
30/06:00am 6.8 CALM 0 0 1023.2 - 0.0 - - - - - - -
30/05:30am 7.8 CALM 0 0 1023.0 - 0.0 - - - - - - -
30/05:00am 7.4 CALM 0 0 1022.9 - 0.0 - - - - - - -
30/04:30am 8.0 CALM 0 0 1023.1 - 0.0 - - - - - - -
30/04:00am 7.2 CALM 0 0 1023.2 - 0.0 - - - - - - -
30/03:30am 7.8 CALM 0 0 1023.2 - 0.0 - - - - - - -
30/03:00am 8.1 CALM 0 0 1023.3 - 0.0 - - - - - - -
30/02:30am 8.1 CALM 0 0 1023.4 - 0.0 - - - - - - -
30/02:00am 9.2 CALM 0 0 1023.4 - 0.0 - - - - - - -
30/01:30am 8.4 CALM 0 0 1023.5 - 0.0 - - - - - - -
30/01:00am 8.8 CALM 0 0 1023.5 - 0.0 - - - - - - -
30/12:30am 8.4 CALM 0 0 1023.5 - 0.0 - - - - - - -
30/12:00am 8.9 CALM 0 0 1023.6 - 0.0 - - - - - - -
 
Date/Time
EDT
Temp

°C
Wind Pressure Rain
since 9am
mm
Weather Cloud Vis
km
Sea
Height
m
Swell
Dir
 
Speed
knots
Gust
knots
hPa Trend Height
m
Period
s
Dir
29/11:30pm 10.4 CALM 0 0 1023.7 - 0.0 - - - - - - -
29/11:00pm 10.1 CALM 0 0 1023.6 - 0.0 - - - - - - -
29/10:30pm 11.2 CALM 0 0 1023.6 - 0.0 - - - - - - -
29/10:00pm 12.2 CALM 0 0 1023.5 - 0.0 - - - - - - -
29/09:30pm 12.5 W 1 1 1023.4 - 0.0 - - - - - - -
29/09:00pm 13.9 W 1 1 1023.2 - 0.0 - - - - - - -
29/08:30pm 14.9 W 1 1 1023.0 - 0.0 - - - - - - -
29/08:00pm 16.2 W 2 3 1022.8 - 0.0 - - - - - - -
29/07:30pm 17.1 W 3 5 1022.7 - 0.0 - - - - - - -
29/07:00pm 18.1 NW 5 7 1022.5 - 0.0 - - - - - - -
29/06:30pm 19.0 WNW 6 8 1022.4 - 0.0 - - - - - - -
29/06:00pm 19.7 WNW 7 9 1022.3 - 0.0 - - - - - - -
29/05:30pm 19.5 NW 8 11 1022.1 - 0.0 - - - - - - -
29/05:00pm 19.7 NW 9 13 1022.0 - 0.0 - - - - - - -
29/04:30pm 19.6 NW 11 15 1022.0 - 0.0 - - - - - - -
29/04:00pm 20.1 NW 11 14 1021.9 - 0.0 - - - - - - -
29/03:30pm 20.1 NW 12 15 1022.0 - 0.0 - - - - - - -
29/03:00pm 19.8 NW 12 16 1022.1 - 0.0 - - - - - - -
29/02:30pm 20.4 NW 11 15 1022.2 - 0.0 - - - - - - -
29/02:00pm 20.1 NW 11 14 1022.4 - 0.0 - - - - - - -
29/01:30pm 19.7 NW 10 13 1022.6 - 0.0 - - - - - - -
29/01:00pm 19.9 NW 11 14 1022.8 - 0.0 - - - - - - -
29/12:30pm 20.3 NW 9 13 1022.8 - 0.0 - - - - - - -
29/12:00pm 20.0 NW 9 13 1023.1 - 0.0 - - - - - - -
29/11:30am 19.3 NNW 7 10 1023.0 - 0.0 - - - - - - -
29/11:00am 17.6 N 7 9 1023.1 - 0.0 - - - - - - -
29/10:30am 16.3 N 6 8 1023.1 - 0.0 - - - - - - -
29/10:00am 15.1 N 4 7 1023.1 - 0.0 - - - - - - -
29/09:30am 13.4 N 3 4 1022.8 - 0.2 - - - - - - -
29/09:00am 11.9 SW 1 3 1022.6 - 0.2 - - - - - - -
29/08:30am 7.6 NNE 3 3 1022.4 - 0.2 - - - - - - -
29/08:00am 6.5 N 1 2 1022.3 - 0.2 - - - - - - -
29/07:30am 6.5 N 2 3 1022.0 - 0.2 - - - - - - -
29/07:00am 4.4 CALM 0 0 1021.9 - 0.2 - - - - - - -
29/06:30am 5.0 CALM 0 0 1021.6 - 0.2 - - - - - - -
29/06:00am 5.8 CALM 0 0 1021.4 - 0.2 - - - - - - -
29/05:30am 6.5 CALM 0 0 1021.1 - 0.2 - - - - - - -
29/05:00am 6.0 CALM 0 0 1020.9 - 0.2 - - - - - - -
29/04:30am 6.3 CALM 0 0 1020.8 - 0.2 - - - - - - -
29/04:00am 6.2 CALM 0 0 1021.0 - 0.2 - - - - - - -
29/03:30am 6.0 CALM 0 0 1021.1 - 0.2 - - - - - - -
29/03:00am 6.1 CALM 0 0 1021.3 - 0.2 - - - - - - -
29/02:30am 6.8 CALM 0 0 1021.5 - 0.2 - - - - - - -
29/02:00am 7.3 CALM 0 0 1021.6 - 0.2 - - - - - - -
29/01:30am 7.8 CALM 0 0 1021.5 - 0.2 - - - - - - -
29/01:00am 8.5 CALM 0 0 1021.6 - 0.2 - - - - - - -
29/12:30am 8.0 CALM 0 0 1021.7 - 0.2 - - - - - - -
29/12:00am 8.2 CALM 0 0 1022.0 - 0.2 - - - - - - -
 
Date/Time
EDT
Temp

°C
Wind Pressure Rain
since 9am
mm
Weather Cloud Vis
km
Sea
Height
m
Swell
Dir
 
Speed
knots
Gust
knots
hPa Trend Height
m
Period
s
Dir
28/11:30pm 7.5 CALM 0 0 1022.1 - 0.2 - - - - - - -
28/11:00pm 8.2 CALM 0 0 1022.2 - 0.2 - - - - - - -
28/10:30pm 8.9 CALM 0 0 1022.4 - 0.2 - - - - - - -
28/10:00pm 9.4 CALM 0 0 1022.5 - 0.2 - - - - - - -
28/09:30pm 10.6 CALM 0 0 1022.3 - 0.2 - - - - - - -

Other Formats:

Comma delimited format used in spreadsheet applications
http://www.bom.gov.au/fwo/IDV60701/IDV60701.95816.axf

JavaScript Object Notation format (JSON) in row-major order
http://www.bom.gov.au/fwo/IDV60701/IDV60701.95816.json